createdAt,value
2022-09-28T00:02:08.689Z,10.32
2022-09-28T00:04:35.236Z,10.28
2022-09-28T00:07:01.679Z,10.23
2022-09-28T00:09:28.157Z,10.16
2022-09-28T00:11:56.197Z,10.10
2022-09-28T00:14:23.008Z,10.07
2022-09-28T00:16:49.960Z,10.01
2022-09-28T00:19:16.857Z,9.95
2022-09-28T00:21:43.459Z,9.94
2022-09-28T00:24:22.923Z,9.91
2022-09-28T00:26:55.962Z,9.89
2022-09-28T00:29:33.861Z,9.84
2022-09-28T00:32:05.071Z,9.75
2022-09-28T00:34:34.770Z,9.67
2022-09-28T00:37:03.273Z,9.59
2022-09-28T00:39:31.710Z,9.51
2022-09-28T00:41:58.904Z,9.43
2022-09-28T00:44:25.439Z,9.37
2022-09-28T00:46:56.212Z,9.33
2022-09-28T00:49:32.559Z,9.30
2022-09-28T00:52:00.214Z,9.27
2022-09-28T00:54:26.791Z,9.20
2022-09-28T00:56:53.364Z,9.17
2022-09-28T00:59:19.864Z,9.13
2022-09-28T01:01:46.752Z,9.09
2022-09-28T01:04:13.644Z,9.07
2022-09-28T01:06:40.184Z,9.02
2022-09-28T01:09:10.490Z,9.00
2022-09-28T01:11:39.163Z,9.00
2022-09-28T01:14:13.914Z,9.03
2022-09-28T01:16:40.370Z,9.08
2022-09-28T01:19:45.405Z,9.11
2022-09-28T01:22:31.132Z,9.14
2022-09-28T01:25:12.194Z,9.16
2022-09-28T01:27:51.519Z,9.16
2022-09-28T01:30:20.832Z,9.14
2022-09-28T01:32:47.302Z,9.07
2022-09-28T01:35:23.559Z,8.98
2022-09-28T01:37:55.761Z,8.90
2022-09-28T01:40:25.773Z,8.81
2022-09-28T01:42:59.712Z,8.75
2022-09-28T01:45:36.765Z,8.68
2022-09-28T01:48:06.916Z,8.61
2022-09-28T01:50:38.398Z,8.56
2022-09-28T01:53:30.381Z,8.49
2022-09-28T01:56:05.229Z,8.44
2022-09-28T01:58:48.858Z,8.38
2022-09-28T02:01:21.167Z,8.33
2022-09-28T02:03:59.014Z,8.28
2022-09-28T02:06:31.928Z,8.22
2022-09-28T02:09:05.814Z,8.19
2022-09-28T02:11:47.254Z,8.14
2022-09-28T02:14:17.588Z,8.13
2022-09-28T02:16:52.532Z,8.12
2022-09-28T02:19:27.648Z,8.13
2022-09-28T02:21:59.517Z,8.14
2022-09-28T02:24:37.793Z,8.19
2022-09-28T02:27:13.872Z,8.23
2022-09-28T02:29:41.002Z,8.32
2022-09-28T02:32:07.553Z,8.42
2022-09-28T02:34:35.608Z,8.50
2022-09-28T02:37:02.808Z,8.56
2022-09-28T02:39:29.612Z,8.65
2022-09-28T02:42:19.918Z,8.74
2022-09-28T02:45:05.006Z,8.82
2022-09-28T02:47:44.578Z,8.89
2022-09-28T02:50:33.975Z,8.95
2022-09-28T02:53:38.530Z,9.03
2022-09-28T02:56:35.899Z,9.09
2022-09-28T02:59:26.089Z,9.17
2022-09-28T03:02:01.663Z,9.21
2022-09-28T03:04:37.231Z,9.26
2022-09-28T03:07:26.701Z,9.30
2022-09-28T03:10:23.913Z,9.34
2022-09-28T03:12:53.512Z,9.36
2022-09-28T03:15:34.740Z,9.39
2022-09-28T03:18:01.572Z,9.42
2022-09-28T03:20:30.544Z,9.46
2022-09-28T03:23:22.716Z,9.48
2022-09-28T03:25:43.520Z,9.50
2022-09-28T03:28:10.045Z,9.52
2022-09-28T03:30:42.233Z,9.54
2022-09-28T03:33:09.038Z,9.57
2022-09-28T03:35:35.546Z,9.57
2022-09-28T03:38:02.139Z,9.60
2022-09-28T03:40:30.746Z,9.63
2022-09-28T03:42:57.231Z,9.62
2022-09-28T03:45:23.753Z,9.61
2022-09-28T03:47:51.862Z,9.59
2022-09-28T03:50:18.831Z,9.55
2022-09-28T03:52:45.382Z,9.53
2022-09-28T03:55:11.984Z,9.50
2022-09-28T03:57:38.559Z,9.43
2022-09-28T04:00:06.329Z,9.37
2022-09-28T04:02:40.158Z,9.31
2022-09-28T04:05:06.916Z,9.25
2022-09-28T04:07:33.445Z,9.24
2022-09-28T04:09:59.975Z,9.21
2022-09-28T04:12:26.500Z,9.18
2022-09-28T04:14:53.306Z,9.14
2022-09-28T04:17:19.839Z,9.15
2022-09-28T04:19:47.398Z,9.15
2022-09-28T04:22:23.398Z,9.16
2022-09-28T04:24:49.881Z,9.19
2022-09-28T04:27:35.938Z,9.20
2022-09-28T04:30:03.109Z,9.21
2022-09-28T04:32:31.402Z,9.21
2022-09-28T04:34:57.945Z,9.18
2022-09-28T04:37:24.702Z,9.14
2022-09-28T04:39:51.218Z,9.14
2022-09-28T04:42:19.088Z,9.15
2022-09-28T04:44:45.953Z,9.17
2022-09-28T04:47:12.554Z,9.20
2022-09-28T04:50:11.487Z,9.25
2022-09-28T04:52:57.974Z,9.30
2022-09-28T04:55:24.447Z,9.32
2022-09-28T04:57:50.978Z,9.34
2022-09-28T05:00:17.502Z,9.36
2022-09-28T05:02:56.417Z,9.35
2022-09-28T05:05:47.487Z,9.38
2022-09-28T05:08:30.621Z,9.40
2022-09-28T05:11:01.742Z,9.41
2022-09-28T05:13:28.650Z,9.41
2022-09-28T05:15:59.676Z,9.43
2022-09-28T05:18:28.544Z,9.44
2022-09-28T05:21:02.545Z,9.47
2022-09-28T05:23:29.184Z,9.50
2022-09-28T05:25:57.007Z,9.52
2022-09-28T05:28:28.778Z,9.56
2022-09-28T05:31:14.402Z,9.60
2022-09-28T05:33:57.309Z,9.62
2022-09-28T05:36:26.800Z,9.65
2022-09-28T05:38:53.637Z,9.67
2022-09-28T05:41:20.237Z,9.70
2022-09-28T05:43:46.745Z,9.72
2022-09-28T05:46:13.797Z,9.75
2022-09-28T05:48:41.521Z,9.78
2022-09-28T05:51:10.098Z,9.80
2022-09-28T05:53:36.732Z,9.84
2022-09-28T05:56:04.156Z,9.87
2022-09-28T05:58:32.389Z,9.91
2022-09-28T06:00:59.413Z,9.95
2022-09-28T06:03:25.971Z,9.99
2022-09-28T06:05:56.842Z,10.04
2022-09-28T06:08:24.015Z,10.07
2022-09-28T06:11:02.111Z,10.11
2022-09-28T06:13:29.312Z,10.14
2022-09-28T06:15:55.921Z,10.16
2022-09-28T06:18:22.573Z,10.19
2022-09-28T06:21:13.679Z,10.20
2022-09-28T06:23:48.174Z,10.22
2022-09-28T06:26:16.540Z,10.24
2022-09-28T06:28:44.448Z,10.26
2022-09-28T06:31:11.203Z,10.26
2022-09-28T06:33:44.707Z,10.24
2022-09-28T06:36:11.273Z,10.25
2022-09-28T06:38:38.320Z,10.27
2022-09-28T06:41:05.391Z,10.29
2022-09-28T06:43:34.586Z,10.32
2022-09-28T06:46:14.152Z,10.34
2022-09-28T06:49:09.260Z,10.35
2022-09-28T06:52:12.011Z,10.35
2022-09-28T06:54:57.157Z,10.35
2022-09-28T06:57:32.531Z,10.37
2022-09-28T06:59:59.186Z,10.42
2022-09-28T07:02:28.609Z,10.48
2022-09-28T07:05:12.512Z,10.53
2022-09-28T07:07:55.180Z,10.57
2022-09-28T07:11:01.413Z,10.65
2022-09-28T07:13:50.230Z,10.72
2022-09-28T07:16:24.098Z,10.79
2022-09-28T07:18:53.309Z,10.86
2022-09-28T07:21:29.347Z,10.94
2022-09-28T07:23:59.943Z,11.03
2022-09-28T07:26:35.110Z,11.11
2022-09-28T07:29:06.771Z,11.19
2022-09-28T07:31:53.649Z,11.33
2022-09-28T07:34:45.348Z,11.44
2022-09-28T07:37:18.861Z,11.56
2022-09-28T07:40:04.955Z,11.65
2022-09-28T07:42:34.385Z,11.77
2022-09-28T07:45:00.950Z,11.87
2022-09-28T07:47:33.892Z,11.96
2022-09-28T07:50:21.151Z,12.05
2022-09-28T07:53:00.498Z,12.11
2022-09-28T07:56:07.217Z,12.18
2022-09-28T07:58:40.832Z,12.25
2022-09-28T08:01:41.922Z,12.36
2022-09-28T08:04:11.184Z,12.43
2022-09-28T08:06:40.415Z,12.44
2022-09-28T08:09:08.170Z,12.48
2022-09-28T08:11:53.212Z,12.55
2022-09-28T08:14:34.322Z,12.63
2022-09-28T08:17:16.108Z,12.69
2022-09-28T08:20:07.712Z,12.75
2022-09-28T08:22:34.292Z,12.81
2022-09-28T08:25:01.161Z,12.87
2022-09-28T08:27:28.785Z,12.93
2022-09-28T08:29:55.505Z,12.96
2022-09-28T08:33:00.519Z,13.02
2022-09-28T08:35:42.314Z,13.08
2022-09-28T08:38:11.572Z,13.10
2022-09-28T08:41:22.497Z,13.07
2022-09-28T08:44:15.702Z,13.10
2022-09-28T08:47:07.717Z,13.12
2022-09-28T08:49:48.586Z,13.13
2022-09-28T08:52:39.729Z,13.16
2022-09-28T08:55:46.779Z,13.23
2022-09-28T08:58:17.703Z,13.27
2022-09-28T09:00:50.286Z,13.32
2022-09-28T09:03:31.808Z,13.36
2022-09-28T09:06:28.396Z,13.41
2022-09-28T09:09:31.117Z,13.46
2022-09-28T09:12:36.976Z,13.50
2022-09-28T09:15:19.302Z,13.53
2022-09-28T09:18:19.915Z,13.52
2022-09-28T09:21:06.287Z,13.54
2022-09-28T09:23:47.485Z,13.52
2022-09-28T09:26:25.601Z,13.53
2022-09-28T09:29:30.810Z,13.53
2022-09-28T09:32:31.264Z,13.48
2022-09-28T09:35:16.492Z,13.56
2022-09-28T09:38:29.981Z,13.61
2022-09-28T09:41:36.075Z,13.70
2022-09-28T09:44:28.310Z,13.77
2022-09-28T09:47:09.665Z,13.83
2022-09-28T09:49:49.902Z,13.87
2022-09-28T09:52:26.476Z,13.88
2022-09-28T09:55:05.502Z,13.86
2022-09-28T09:57:45.560Z,13.87
2022-09-28T10:00:32.067Z,13.78
2022-09-28T10:03:19.536Z,13.80
2022-09-28T10:06:12.063Z,13.80
2022-09-28T10:08:48.304Z,13.89
2022-09-28T10:11:25.668Z,13.94
2022-09-28T10:13:55.346Z,14.00
2022-09-28T10:16:43.007Z,14.02
2022-09-28T10:19:19.383Z,14.10
2022-09-28T10:22:06.268Z,14.22
2022-09-28T10:24:45.231Z,14.32
2022-09-28T10:27:16.778Z,14.36
2022-09-28T10:29:53.153Z,14.41
2022-09-28T10:32:36.049Z,14.49
2022-09-28T10:35:17.939Z,14.54
2022-09-28T10:38:06.716Z,14.56
2022-09-28T10:41:13.490Z,14.54
2022-09-28T10:44:10.906Z,14.51
2022-09-28T10:46:44.939Z,14.45
2022-09-28T10:49:18.692Z,14.36
2022-09-28T10:51:54.760Z,14.20
2022-09-28T10:54:30.526Z,14.08
2022-09-28T10:56:59.753Z,13.99
2022-09-28T10:59:42.400Z,13.87
2022-09-28T11:02:41.540Z,13.76
2022-09-28T11:05:27.966Z,13.69
2022-09-28T11:07:59.176Z,13.67
2022-09-28T11:10:33.642Z,13.66
2022-09-28T11:13:10.513Z,13.67
2022-09-28T11:15:44.109Z,13.69
2022-09-28T11:18:25.197Z,13.70
2022-09-28T11:20:51.874Z,13.74
2022-09-28T11:23:20.418Z,13.82
2022-09-28T11:25:58.807Z,13.87
2022-09-28T11:28:32.636Z,13.94
2022-09-28T11:31:02.372Z,13.87
2022-09-28T11:34:03.164Z,13.95
2022-09-28T11:36:48.651Z,14.07
2022-09-28T11:39:17.786Z,14.23
2022-09-28T11:42:10.995Z,14.38
2022-09-28T11:44:48.276Z,14.61
2022-09-28T11:47:47.113Z,14.77
2022-09-28T11:50:48.889Z,14.91
2022-09-28T11:53:20.321Z,15.03
2022-09-28T11:55:59.240Z,15.13
2022-09-28T11:58:40.987Z,15.20
2022-09-28T12:01:19.894Z,15.19
2022-09-28T12:04:33.658Z,15.20
2022-09-28T12:07:06.684Z,15.25
2022-09-28T12:10:00.318Z,15.26
2022-09-28T12:12:35.312Z,15.27
2022-09-28T12:15:18.599Z,15.34
2022-09-28T12:17:56.124Z,15.41
2022-09-28T12:20:41.972Z,15.42
2022-09-28T12:23:17.706Z,15.41
2022-09-28T12:25:51.650Z,15.39
2022-09-28T12:28:33.192Z,15.40
2022-09-28T12:31:11.843Z,15.40
2022-09-28T12:33:39.506Z,15.46
2022-09-28T12:36:14.917Z,15.41
2022-09-28T12:39:14.690Z,15.32
2022-09-28T12:41:50.696Z,15.23
2022-09-28T12:44:41.787Z,15.14
2022-09-28T12:47:40.728Z,15.05
2022-09-28T12:50:40.830Z,14.78
2022-09-28T12:53:34.103Z,14.38
2022-09-28T12:56:22.362Z,13.90
2022-09-28T12:59:20.860Z,13.47
2022-09-28T13:01:57.190Z,13.10
2022-09-28T13:04:55.022Z,12.82
2022-09-28T13:07:30.759Z,12.60
2022-09-28T13:10:48.627Z,12.41
2022-09-28T13:13:36.119Z,12.15
2022-09-28T13:16:17.517Z,12.05
2022-09-28T13:19:13.842Z,12.04
2022-09-28T13:22:04.092Z,12.01
2022-09-28T13:24:38.660Z,11.97
2022-09-28T13:27:21.029Z,11.93
2022-09-28T13:29:50.386Z,11.82
2022-09-28T13:32:18.565Z,11.88
2022-09-28T13:34:50.462Z,11.86
2022-09-28T13:37:16.880Z,11.85
2022-09-28T13:39:52.115Z,11.82
2022-09-28T13:42:44.945Z,11.89
2022-09-28T13:45:23.123Z,11.98
2022-09-28T13:48:16.247Z,12.02
2022-09-28T13:51:04.535Z,12.10
2022-09-28T13:53:47.143Z,12.08
2022-09-28T13:56:50.625Z,12.08
2022-09-28T13:59:19.855Z,12.17
2022-09-28T14:02:18.615Z,12.18
2022-09-28T14:04:55.137Z,12.20
2022-09-28T14:07:33.635Z,12.23
2022-09-28T14:10:55.065Z,12.27
2022-09-28T14:13:43.473Z,12.34
2022-09-28T14:16:36.914Z,12.44
2022-09-28T14:19:24.377Z,12.54
2022-09-28T14:22:15.797Z,12.62
2022-09-28T14:24:52.087Z,12.70
2022-09-28T14:27:36.988Z,12.76
2022-09-28T14:30:12.346Z,12.91
2022-09-28T14:32:42.844Z,12.98
2022-09-28T14:35:43.287Z,13.11
2022-09-28T14:38:41.265Z,13.18
2022-09-28T14:41:25.648Z,13.21
2022-09-28T14:44:02.778Z,13.29
2022-09-28T14:46:31.032Z,13.33
2022-09-28T14:49:09.508Z,13.36
2022-09-28T14:51:38.837Z,13.39
2022-09-28T14:54:17.198Z,13.37
2022-09-28T14:57:08.873Z,13.36
2022-09-28T14:59:47.773Z,13.37
2022-09-28T15:02:27.410Z,13.38
2022-09-28T15:04:56.829Z,13.36
2022-09-28T15:07:27.063Z,13.34
2022-09-28T15:09:55.557Z,13.27
2022-09-28T15:12:27.573Z,13.26
2022-09-28T15:15:05.825Z,13.28
2022-09-28T15:17:40.264Z,13.39
2022-09-28T15:20:24.575Z,13.44
2022-09-28T15:22:58.569Z,13.47
2022-09-28T15:25:28.807Z,13.31
2022-09-28T15:27:58.214Z,13.21
2022-09-28T15:30:35.068Z,13.15
2022-09-28T15:33:22.109Z,13.21
2022-09-28T15:35:59.459Z,13.21
2022-09-28T15:38:26.063Z,13.16
2022-09-28T15:40:52.910Z,13.20
2022-09-28T15:43:33.081Z,13.18
2022-09-28T15:46:21.831Z,13.32
2022-09-28T15:48:59.531Z,13.47
2022-09-28T15:51:27.479Z,13.46
2022-09-28T15:54:17.499Z,13.47
2022-09-28T15:56:52.918Z,13.36
2022-09-28T15:59:30.156Z,13.14
2022-09-28T16:02:11.225Z,12.94
2022-09-28T16:04:47.865Z,12.75
2022-09-28T16:07:50.626Z,12.55
2022-09-28T16:10:20.196Z,12.38
2022-09-28T16:12:50.954Z,12.28
2022-09-28T16:15:25.244Z,12.21
2022-09-28T16:18:00.594Z,12.13
2022-09-28T16:20:32.003Z,12.09
2022-09-28T16:23:05.986Z,12.07
2022-09-28T16:25:37.084Z,12.04
2022-09-28T16:28:04.809Z,12.00
2022-09-28T16:30:33.687Z,11.93
2022-09-28T16:33:03.630Z,11.88
2022-09-28T16:35:50.385Z,11.83
2022-09-28T16:38:18.580Z,11.79
2022-09-28T16:40:49.563Z,11.76
2022-09-28T16:43:31.301Z,11.75
2022-09-28T16:46:15.861Z,11.77
2022-09-28T16:48:55.746Z,11.78
2022-09-28T16:51:23.339Z,11.76
2022-09-28T16:54:08.520Z,11.73
2022-09-28T16:56:36.442Z,11.72
2022-09-28T16:59:03.559Z,11.70
2022-09-28T17:01:31.302Z,11.70
2022-09-28T17:03:58.220Z,11.69
2022-09-28T17:06:25.384Z,11.69
2022-09-28T17:08:54.339Z,11.69
2022-09-28T17:11:24.648Z,11.67
2022-09-28T17:13:52.249Z,11.64
2022-09-28T17:16:42.702Z,11.63
2022-09-28T17:19:18.098Z,11.58
2022-09-28T17:21:44.728Z,11.53
2022-09-28T17:24:11.341Z,11.48
2022-09-28T17:26:38.173Z,11.45
2022-09-28T17:29:08.662Z,11.41
2022-09-28T17:31:35.592Z,11.38
2022-09-28T17:34:02.054Z,11.35
2022-09-28T17:36:32.671Z,11.32
2022-09-28T17:39:00.260Z,11.28
2022-09-28T17:41:26.780Z,11.28
2022-09-28T17:43:53.345Z,11.27
2022-09-28T17:46:32.195Z,11.26
2022-09-28T17:49:00.969Z,11.23
2022-09-28T17:51:30.106Z,11.21
2022-09-28T17:53:57.444Z,11.19
2022-09-28T17:56:27.506Z,11.18
2022-09-28T17:59:00.212Z,11.19
2022-09-28T18:01:30.091Z,11.19
2022-09-28T18:03:56.686Z,11.21
2022-09-28T18:06:23.695Z,11.23
2022-09-28T18:08:50.360Z,11.28
2022-09-28T18:11:17.402Z,11.30
2022-09-28T18:13:45.970Z,11.33
2022-09-28T18:16:14.246Z,11.34
2022-09-28T18:18:41.647Z,11.35
2022-09-28T18:21:09.342Z,11.35
2022-09-28T18:23:44.959Z,11.34
2022-09-28T18:26:13.205Z,11.32
2022-09-28T18:28:40.459Z,11.29
2022-09-28T18:31:08.989Z,11.27
2022-09-28T18:33:36.572Z,11.23
2022-09-28T18:36:04.004Z,11.21
2022-09-28T18:38:30.537Z,11.18
2022-09-28T18:40:57.105Z,11.14
2022-09-28T18:43:23.816Z,11.14
2022-09-28T18:45:50.362Z,11.16
2022-09-28T18:48:18.787Z,11.15
2022-09-28T18:50:45.546Z,11.17
2022-09-28T18:53:12.023Z,11.16
2022-09-28T18:55:40.485Z,11.15
2022-09-28T18:58:09.131Z,11.14
2022-09-28T19:00:42.135Z,11.12
2022-09-28T19:03:11.227Z,11.12
2022-09-28T19:05:42.852Z,11.12
2022-09-28T19:08:10.115Z,11.13
2022-09-28T19:10:36.768Z,11.15
2022-09-28T19:13:03.301Z,11.16
2022-09-28T19:15:30.001Z,11.17
2022-09-28T19:17:57.059Z,11.18
2022-09-28T19:20:23.656Z,11.18
2022-09-28T19:22:50.553Z,11.17
2022-09-28T19:25:17.237Z,11.16
2022-09-28T19:27:43.910Z,11.16
2022-09-28T19:30:10.967Z,11.15
2022-09-28T19:32:37.448Z,11.15
2022-09-28T19:35:05.285Z,11.15
2022-09-28T19:37:35.428Z,11.14
2022-09-28T19:40:05.777Z,11.15
2022-09-28T19:42:32.716Z,11.16
2022-09-28T19:44:59.278Z,11.18
2022-09-28T19:47:25.868Z,11.17
2022-09-28T19:49:52.505Z,11.20
2022-09-28T19:52:19.193Z,11.21
2022-09-28T19:54:54.352Z,11.22
2022-09-28T19:57:21.037Z,11.24
2022-09-28T19:59:52.324Z,11.26
2022-09-28T20:02:19.554Z,11.29
2022-09-28T20:04:46.449Z,11.29
2022-09-28T20:07:13.181Z,11.31
2022-09-28T20:09:40.077Z,11.30
2022-09-28T20:12:06.549Z,11.31
2022-09-28T20:14:37.978Z,11.31
2022-09-28T20:17:06.987Z,11.34
2022-09-28T20:19:33.611Z,11.34
2022-09-28T20:22:02.682Z,11.32
2022-09-28T20:24:29.595Z,11.30
2022-09-28T20:26:56.288Z,11.28
2022-09-28T20:29:24.261Z,11.24
2022-09-28T20:31:51.774Z,11.24
2022-09-28T20:34:18.445Z,11.25
2022-09-28T20:36:45.101Z,11.25
2022-09-28T20:39:12.184Z,11.27
2022-09-28T20:41:39.161Z,11.28
2022-09-28T20:44:16.079Z,11.27
2022-09-28T20:46:44.185Z,11.27
2022-09-28T20:49:11.042Z,11.26
2022-09-28T20:51:37.575Z,11.27
2022-09-28T20:54:04.224Z,11.25
2022-09-28T20:56:39.667Z,11.21
2022-09-28T20:59:12.653Z,11.17
2022-09-28T21:01:39.855Z,11.17
2022-09-28T21:04:08.998Z,11.18
2022-09-28T21:06:41.293Z,11.20
2022-09-28T21:09:09.650Z,11.21
2022-09-28T21:11:37.014Z,11.22
2022-09-28T21:14:06.246Z,11.23
2022-09-28T21:16:34.416Z,11.23
2022-09-28T21:19:00.957Z,11.25
2022-09-28T21:21:27.559Z,11.25
2022-09-28T21:23:55.680Z,11.26
2022-09-28T21:26:25.134Z,11.26
2022-09-28T21:28:53.863Z,11.26
2022-09-28T21:31:26.247Z,11.26
2022-09-28T21:33:55.225Z,11.26
2022-09-28T21:36:21.719Z,11.24
2022-09-28T21:38:48.207Z,11.22
2022-09-28T21:41:14.886Z,11.19
2022-09-28T21:43:41.433Z,11.16
2022-09-28T21:46:08.064Z,11.11
2022-09-28T21:48:34.953Z,11.06
2022-09-28T21:51:06.961Z,10.99
2022-09-28T21:53:36.155Z,10.93
2022-09-28T21:56:04.686Z,10.89
2022-09-28T21:58:33.573Z,10.83
2022-09-28T22:01:01.314Z,10.79
2022-09-28T22:03:28.856Z,10.73
2022-09-28T22:05:55.423Z,10.68
2022-09-28T22:08:23.439Z,10.63
2022-09-28T22:11:03.141Z,10.61
2022-09-28T22:13:31.631Z,10.60
2022-09-28T22:15:58.879Z,10.60
2022-09-28T22:18:26.884Z,10.59
2022-09-28T22:21:06.457Z,10.57
2022-09-28T22:23:33.785Z,10.54
2022-09-28T22:26:02.039Z,10.49
2022-09-28T22:28:29.139Z,10.41
2022-09-28T22:30:56.443Z,10.34
2022-09-28T22:33:23.847Z,10.30
2022-09-28T22:35:51.281Z,10.25
2022-09-28T22:38:19.044Z,10.21
2022-09-28T22:40:54.573Z,10.18
2022-09-28T22:43:23.448Z,10.14
2022-09-28T22:45:50.344Z,10.07
2022-09-28T22:48:17.301Z,10.00
2022-09-28T22:50:52.898Z,9.89
2022-09-28T22:53:19.383Z,9.80
2022-09-28T22:55:45.989Z,9.72
2022-09-28T22:58:12.860Z,9.63
2022-09-28T23:00:39.488Z,9.54
2022-09-28T23:03:06.151Z,9.47
2022-09-28T23:05:32.778Z,9.40
2022-09-28T23:07:59.287Z,9.35
2022-09-28T23:10:25.935Z,9.29
2022-09-28T23:12:55.466Z,9.25
2022-09-28T23:15:22.966Z,9.22
2022-09-28T23:17:53.501Z,9.21
2022-09-28T23:20:21.325Z,9.24
2022-09-28T23:22:48.938Z,9.27
2022-09-28T23:25:17.190Z,9.29
2022-09-28T23:27:50.788Z,9.33
2022-09-28T23:30:19.278Z,9.35
2022-09-28T23:32:45.871Z,9.37
2022-09-28T23:35:14.178Z,9.40
2022-09-28T23:37:40.774Z,9.44
2022-09-28T23:40:07.668Z,9.46
2022-09-28T23:42:35.431Z,9.48
2022-09-28T23:45:02.029Z,9.48
2022-09-28T23:47:28.606Z,9.50
2022-09-28T23:49:55.177Z,9.51
2022-09-28T23:52:21.704Z,9.51
2022-09-28T23:54:48.209Z,9.50
2022-09-28T23:57:17.021Z,9.44
2022-09-28T23:59:43.563Z,9.40
